Time;durP1;ratioP1;P1;durP2;ratioP2;P2;SDS_P1;SDS_P2;PMS_P1;PMS_P2;Temp;Humidity;BMP_temperature;BMP_pressure;BME280_temperature;BME280_humidity;BME280_pressure;Samples;Min_cycle;Max_cycle;Signal;HPM_P1;HPM_P2
2022/07/30 00:01:01;;;;;;;4.75;3.17;;;;;;;23.60;60.08;94591.31;5070621;28;20316;-62
2022/07/30 00:03:27;;;;;;;5.25;3.45;;;;;;;23.73;60.57;94592.03;5071808;28;20677;-64
2022/07/30 00:05:53;;;;;;;4.90;3.05;;;;;;;23.62;60.00;94591.91;5056409;28;20242;-63
2022/07/30 00:08:19;;;;;;;4.03;2.90;;;;;;;23.67;59.99;94605.88;5074469;28;20784;-62
2022/07/30 00:10:45;;;;;;;5.95;3.42;;;;;;;23.70;59.78;94594.25;5074411;28;20299;-65
2022/07/30 00:13:10;;;;;;;4.88;3.50;;;;;;;23.65;59.91;94592.28;5074226;28;20192;-63
2022/07/30 00:15:36;;;;;;;3.85;2.80;;;;;;;23.70;59.92;94595.03;5074154;28;20208;-63
2022/07/30 00:18:02;;;;;;;3.20;2.90;;;;;;;23.68;59.71;94591.06;5074429;28;20214;-63
2022/07/30 00:20:28;;;;;;;3.53;3.00;;;;;;;23.66;59.90;94583.50;5073813;28;20239;-64
2022/07/30 00:22:53;;;;;;;5.53;3.05;;;;;;;23.73;61.42;94565.28;5074067;28;20181;-63
2022/07/30 00:25:19;;;;;;;3.22;3.03;;;;;;;23.65;60.22;94571.53;5073846;28;20208;-62
2022/07/30 00:27:44;;;;;;;5.00;3.10;;;;;;;23.63;60.94;94564.94;5074098;28;20169;-60
2022/07/30 00:30:10;;;;;;;3.28;2.95;;;;;;;23.69;59.72;94583.09;5055873;28;20185;-62
2022/07/30 00:32:36;;;;;;;3.58;2.70;;;;;;;23.59;60.11;94582.75;5055164;28;20685;-63
2022/07/30 00:35:02;;;;;;;3.25;2.95;;;;;;;23.57;60.04;94576.97;5073688;28;20670;-61
2022/07/30 00:37:28;;;;;;;3.80;3.13;;;;;;;23.60;60.43;94573.94;5073885;28;20204;-63
2022/07/30 00:39:53;;;;;;;3.08;2.80;;;;;;;23.57;60.60;94568.38;5073964;28;20177;-62
2022/07/30 00:42:24;;;;;;;6.43;3.05;;;;;;;23.34;61.68;94543.81;5073795;28;20216;-61
2022/07/30 00:44:51;;;;;;;7.55;3.20;;;;;;;23.40;60.87;94560.31;5073821;28;20223;-63
2022/07/30 00:47:16;;;;;;;4.95;3.25;;;;;;;23.30;61.78;94547.00;5073467;28;20278;-64
2022/07/30 00:49:42;;;;;;;3.28;2.97;;;;;;;23.35;61.06;94554.97;5073713;28;20176;-63
2022/07/30 00:52:07;;;;;;;3.67;3.20;;;;;;;23.27;61.64;94543.00;5073379;28;20223;-62
2022/07/30 00:54:33;;;;;;;3.63;3.15;;;;;;;23.31;61.47;94548.59;5073633;28;20189;-65
2022/07/30 00:56:58;;;;;;;3.30;3.00;;;;;;;23.28;61.45;94549.00;5073702;28;20556;-64
2022/07/30 00:59:26;;;;;;;5.20;3.08;;;;;;;23.14;62.51;94527.53;5073587;28;20188;-64
2022/07/30 01:01:52;;;;;;;4.75;3.30;;;;;;;23.14;62.12;94532.72;5055252;28;20220;-62
2022/07/30 01:04:17;;;;;;;4.45;3.15;;;;;;;23.16;61.91;94528.13;5073468;28;20666;-63
2022/07/30 01:06:43;;;;;;;3.40;3.10;;;;;;;23.19;62.02;94532.88;5073338;28;20201;-62
2022/07/30 01:09:08;;;;;;;4.63;3.20;;;;;;;23.14;62.09;94527.53;5073346;28;20196;-62
2022/07/30 01:11:39;;;;;;;4.63;3.13;;;;;;;23.04;62.97;94519.44;5073459;28;20671;-62
2022/07/30 01:14:07;;;;;;;4.88;2.80;;;;;;;22.96;62.92;94514.50;5073081;28;20224;-64
2022/07/30 01:16:34;;;;;;;5.13;3.85;;;;;;;23.07;62.50;94526.78;5073372;28;20220;-63
2022/07/30 01:21:58;;;;;;;3.58;3.25;;;;;;;23.04;62.65;94519.44;5073316;28;20304;-64
2022/07/30 01:24:34;;;;;;;3.28;2.97;;;;;;;23.04;62.98;94516.03;5073153;28;20258;-63
2022/07/30 01:27:01;;;;;;;4.93;3.45;;;;;;;23.01;63.41;94506.84;5073069;28;20216;-63
2022/07/30 01:29:28;;;;;;;7.65;3.03;;;;;;;23.01;63.24;94513.84;5073117;28;20192;-62
2022/07/30 01:31:58;;;;;;;4.03;3.20;;;;;;;23.03;63.19;94515.22;5071650;28;20615;-62
2022/07/30 01:34:27;;;;;;;3.58;3.28;;;;;;;22.95;63.82;94506.91;5073109;28;20649;-62
2022/07/30 01:36:57;;;;;;;3.25;2.97;;;;;;;22.90;64.06;94510.13;5073331;28;20301;-62
2022/07/30 01:39:25;;;;;;;5.57;3.28;;;;;;;22.92;63.97;94515.91;5054865;28;20177;-60
2022/07/30 01:41:52;;;;;;;5.35;3.60;;;;;;;22.84;63.96;94503.19;5073158;28;20216;-64
2022/07/30 01:44:19;;;;;;;4.45;3.00;;;;;;;22.88;64.40;94506.97;5072859;28;20234;-62
2022/07/30 01:46:46;;;;;;;3.30;3.03;;;;;;;22.91;64.39;94498.75;5072886;28;20223;-63
2022/07/30 01:49:13;;;;;;;3.53;3.10;;;;;;;22.81;64.71;94495.00;5054817;28;20638;-63
2022/07/30 01:51:38;;;;;;;4.18;3.22;;;;;;;22.72;65.13;94484.13;5072779;28;20287;-63
2022/07/30 01:54:08;;;;;;;4.45;4.05;;;;;;;22.74;65.83;94473.53;5072648;28;20296;-64
2022/07/30 01:56:36;;;;;;;6.50;3.42;;;;;;;22.76;65.02;94494.84;5073067;28;20216;-62
2022/07/30 01:59:03;;;;;;;6.45;3.88;;;;;;;22.78;65.07;94493.66;5072621;28;20195;-63
2022/07/30 02:01:29;;;;;;;3.65;3.28;;;;;;;22.80;64.95;94489.06;5072763;28;20705;-62
2022/07/30 02:03:55;;;;;;;4.47;3.85;;;;;;;22.79;66.51;94471.91;5043291;22;20248;-62
2022/07/30 02:06:25;;;;;;;4.38;3.50;;;;;;;22.89;65.28;94487.00;5052338;28;20304;-63
2022/07/30 02:08:56;;;;;;;4.63;3.10;;;;;;;22.94;64.87;94494.94;5052426;28;20267;-65
2022/07/30 02:14:11;;;;;;;6.13;3.60;;;;;;;22.80;66.31;94470.09;5052595;28;20239;-60
2022/07/30 02:16:40;;;;;;;4.35;2.92;;;;;;;22.82;66.75;94462.91;5052337;28;20275;-63
2022/07/30 02:19:13;;;;;;;6.47;3.28;;;;;;;22.89;65.97;94482.59;5052426;28;20182;-62
2022/07/30 02:21:42;;;;;;;3.40;3.10;;;;;;;22.94;65.35;94482.78;5052469;28;20290;-59
2022/07/30 02:24:13;;;;;;;9.43;3.65;;;;;;;22.92;66.80;94458.88;5052147;28;20184;-63
2022/07/30 02:26:41;;;;;;;3.85;3.17;;;;;;;22.80;66.78;94446.78;5051480;28;20223;-64
2022/07/30 02:29:08;;;;;;;3.33;3.08;;;;;;;22.78;66.78;94459.16;5051939;28;20185;-64
2022/07/30 02:31:36;;;;;;;4.03;3.63;;;;;;;22.67;68.03;94441.66;5052102;28;20707;-63
2022/07/30 02:34:03;;;;;;;3.45;3.20;;;;;;;22.63;68.59;94436.09;5050663;28;20212;-63
2022/07/30 02:36:31;;;;;;;3.90;3.47;;;;;;;22.66;68.70;94437.50;5051943;28;20209;-63
2022/07/30 02:38:58;;;;;;;4.20;3.55;;;;;;;22.66;67.97;94443.47;5034569;28;20638;-60
2022/07/30 02:41:27;;;;;;;3.97;3.67;;;;;;;22.63;67.74;94446.47;5034003;28;20253;-63
2022/07/30 02:43:54;;;;;;;4.25;3.47;;;;;;;22.75;66.47;94468.13;5051887;28;20239;-63
2022/07/30 02:46:21;;;;;;;5.25;3.45;;;;;;;22.71;66.17;94469.56;5051710;28;20217;-63
2022/07/30 02:48:49;;;;;;;4.13;3.72;;;;;;;22.58;67.33;94456.69;5051876;28;20181;-62
2022/07/30 02:51:16;;;;;;;6.78;3.65;;;;;;;22.56;68.13;94446.47;5033771;28;20271;-62
2022/07/30 02:53:45;;;;;;;4.43;4.03;;;;;;;22.63;67.10;94461.22;5033672;28;20588;-63
2022/07/30 02:56:14;;;;;;;5.40;3.80;;;;;;;22.65;67.30;94454.84;5051415;28;20776;-62
2022/07/30 02:58:42;;;;;;;5.50;3.92;;;;;;;22.52;68.19;94447.88;5051665;28;20186;-63
2022/07/30 03:01:10;;;;;;;4.50;3.42;;;;;;;22.61;68.12;94443.28;5033461;28;20687;-64
2022/07/30 03:03:36;;;;;;;6.32;3.33;;;;;;;22.64;68.85;94437.72;5051552;28;20189;-64
2022/07/30 03:06:04;;;;;;;4.60;3.65;;;;;;;22.61;68.50;94445.09;5051297;28;20205;-63
2022/07/30 03:08:31;;;;;;;5.30;3.95;;;;;;;22.62;67.24;94459.66;5051433;28;20215;-62
2022/07/30 03:10:57;;;;;;;4.07;3.38;;;;;;;22.58;67.58;94448.91;5051266;28;20206;-63
2022/07/30 03:13:24;;;;;;;4.63;3.63;;;;;;;22.45;68.19;94433.38;5051587;28;20190;-62
2022/07/30 03:15:51;;;;;;;3.78;3.45;;;;;;;22.55;67.52;94444.91;5051364;28;20198;-59
2022/07/30 03:18:19;;;;;;;4.22;3.70;;;;;;;22.39;69.04;94414.28;5051177;28;20254;-60
2022/07/30 03:20:50;;;;;;;3.78;3.38;;;;;;;22.30;70.00;94415.53;5051034;28;20240;-60
2022/07/30 03:23:18;;;;;;;5.65;3.95;;;;;;;22.28;70.94;94398.63;5033531;28;20596;-60
2022/07/30 03:26:00;;;;;;;6.68;4.15;;;;;;;22.22;71.06;94407.22;5051163;28;20675;-61
2022/07/30 03:28:30;;;;;;;7.40;3.72;;;;;;;22.08;71.27;94410.88;5051364;28;20190;-64
2022/07/30 03:30:55;;;;;;;4.13;3.45;;;;;;;22.04;72.33;94404.50;5051286;28;20202;-62
2022/07/30 03:33:22;;;;;;;4.10;3.70;;;;;;;21.95;72.50;94403.94;5051279;28;20200;-63
2022/07/30 03:35:49;;;;;;;6.47;3.47;;;;;;;21.86;73.46;94406.94;5050994;28;20588;-63
2022/07/30 03:38:16;;;;;;;5.20;3.80;;;;;;;21.81;74.32;94401.56;5048649;28;20198;-61
2022/07/30 03:40:43;;;;;;;5.38;3.40;;;;;;;21.74;75.04;94404.16;5050750;28;20217;-60
2022/07/30 03:43:11;;;;;;;4.43;3.45;;;;;;;21.77;73.91;94430.44;5051456;28;20193;-61
2022/07/30 03:45:40;;;;;;;4.35;3.88;;;;;;;21.65;74.36;94421.69;5050721;28;20198;-60
2022/07/30 03:48:07;;;;;;;4.68;4.28;;;;;;;21.51;75.85;94409.03;5032884;28;20189;-60
2022/07/30 03:50:37;;;;;;;7.38;4.45;;;;;;;21.51;75.50;94422.72;5050968;28;20228;-61
2022/07/30 03:53:04;;;;;;;6.22;3.88;;;;;;;21.48;75.05;94423.16;5051124;28;20190;-63
2022/07/30 03:55:30;;;;;;;7.97;3.80;;;;;;;21.52;75.18;94442.44;5050771;28;20752;-63
2022/07/30 03:57:55;;;;;;;7.32;3.90;;;;;;;21.48;75.30;94438.66;5033035;28;20252;-60
2022/07/30 04:00:21;;;;;;;7.38;3.72;;;;;;;21.58;75.19;94446.00;5050560;28;20213;-61
2022/07/30 04:02:47;;;;;;;4.75;3.80;;;;;;;21.67;75.08;94445.59;5076131;22;20314;-62
2022/07/30 04:05:15;;;;;;;4.40;4.00;;;;;;;21.68;74.99;94454.94;5069208;28;20185;-63
2022/07/30 04:07:40;;;;;;;5.80;3.72;;;;;;;21.72;76.12;94442.41;5070573;28;20192;-68
2022/07/30 04:10:06;;;;;;;7.50;3.65;;;;;;;21.88;74.22;94473.03;5070387;28;20196;-60
2022/07/30 04:12:32;;;;;;;6.13;3.88;;;;;;;21.70;74.60;94463.31;5070649;28;20189;-63
2022/07/30 04:14:57;;;;;;;4.07;3.67;;;;;;;21.76;74.46;94459.09;5070577;28;20177;-60
2022/07/30 04:17:34;;;;;;;3.85;3.47;;;;;;;21.74;74.90;94461.91;5070259;28;20205;-62
2022/07/30 04:20:35;;;;;;;4.88;3.75;;;;;;;21.80;74.78;94465.47;5070389;28;20649;-63
2022/07/30 04:23:02;;;;;;;6.43;3.80;;;;;;;21.84;74.60;94471.06;5056202;28;20211;-63
2022/07/30 04:25:29;;;;;;;5.18;3.42;;;;;;;21.90;73.89;94475.47;5070382;28;20205;-63
2022/07/30 04:27:54;;;;;;;5.63;3.95;;;;;;;21.79;74.53;94469.06;5070438;28;20185;-64
2022/07/30 04:30:21;;;;;;;3.90;3.35;;;;;;;21.91;73.79;94483.00;5070159;28;20550;-63
2022/07/30 04:32:46;;;;;;;4.82;4.00;;;;;;;21.91;73.84;94477.84;5070538;28;20196;-62
2022/07/30 04:35:11;;;;;;;5.70;4.18;;;;;;;21.95;73.48;94483.38;5070311;28;20169;-62
2022/07/30 04:37:37;;;;;;;6.85;3.75;;;;;;;22.03;73.49;94485.75;5070357;28;20260;-62
2022/07/30 04:40:03;;;;;;;5.15;4.05;;;;;;;22.09;73.33;94484.94;5070214;28;20263;-59
2022/07/30 04:42:28;;;;;;;5.82;3.78;;;;;;;22.11;73.77;94482.94;5070419;28;20630;-63
2022/07/30 04:44:55;;;;;;;10.82;3.90;;;;;;;22.26;73.91;94484.28;5070234;28;20177;-65
2022/07/30 04:47:21;;;;;;;6.10;3.75;;;;;;;22.44;73.71;94496.59;5070103;28;20717;-63
2022/07/30 04:49:47;;;;;;;5.88;4.20;;;;;;;22.51;74.25;94492.16;5072788;28;20185;-61
2022/07/30 04:52:14;;;;;;;4.78;3.83;;;;;;;22.46;74.36;94487.59;5073656;28;20291;-63
2022/07/30 04:54:51;;;;;;;4.45;3.35;;;;;;;22.56;74.34;94492.34;5055812;28;20181;-63
2022/07/30 04:57:18;;;;;;;5.22;3.63;;;;;;;22.65;74.62;94496.31;5073874;28;20239;-63
2022/07/30 04:59:44;;;;;;;5.25;3.65;;;;;;;22.79;74.25;94481.47;5073655;28;20193;-62
2022/07/30 05:02:11;;;;;;;4.10;3.70;;;;;;;22.84;75.00;94479.06;5073632;28;20224;-66
2022/07/30 05:04:39;;;;;;;6.63;3.80;;;;;;;22.89;73.34;94499.94;5055553;28;20219;-63
2022/07/30 05:07:05;;;;;;;4.30;3.90;;;;;;;22.93;73.79;94488.97;5073562;28;20287;-63
2022/07/30 05:09:31;;;;;;;4.57;3.50;;;;;;;22.95;73.27;94496.53;5073144;28;20264;-63
2022/07/30 05:11:58;;;;;;;4.95;3.63;;;;;;;23.03;73.77;94484.09;5073454;28;20800;-63
2022/07/30 05:14:24;;;;;;;10.00;4.53;;;;;;;23.01;74.88;94475.75;5073373;28;20185;-63
2022/07/30 05:16:51;;;;;;;8.73;3.95;;;;;;;23.03;74.70;94471.13;5071845;28;20248;-63
2022/07/30 05:19:18;;;;;;;5.53;3.97;;;;;;;23.21;73.61;94498.97;5073434;28;20204;-61
2022/07/30 05:21:44;;;;;;;4.13;3.72;;;;;;;23.08;73.73;94491.25;5073236;28;20591;-62
2022/07/30 05:24:09;;;;;;;6.28;4.32;;;;;;;23.09;74.19;94485.84;5073085;28;20655;-63
2022/07/30 05:26:35;;;;;;;5.90;4.20;;;;;;;23.16;73.96;94489.22;5073212;28;20208;-64
2022/07/30 05:29:01;;;;;;;6.65;4.28;;;;;;;23.04;74.32;94479.72;5073260;28;20572;-64
2022/07/30 05:31:26;;;;;;;8.25;4.30;;;;;;;23.21;73.40;94502.34;5072981;28;20607;-64
2022/07/30 05:33:52;;;;;;;4.25;3.83;;;;;;;23.24;73.85;94495.94;5055068;28;20669;-65
2022/07/30 05:36:19;;;;;;;6.93;4.45;;;;;;;23.16;73.10;94509.16;5072999;28;20212;-63
2022/07/30 05:38:45;;;;;;;8.95;3.88;;;;;;;23.14;73.52;94498.22;5072930;28;20193;-61
2022/07/30 05:41:11;;;;;;;10.77;5.07;;;;;;;23.18;74.02;94482.00;5072945;28;20224;-64
2022/07/30 05:43:37;;;;;;;17.98;4.35;;;;;;;23.34;79.66;94434.81;5071504;28;20677;-60
2022/07/30 05:46:02;;;;;;;8.00;4.68;;;;;;;23.62;80.71;94425.75;5072903;28;20201;-60
2022/07/30 05:48:30;;;;;;;8.40;5.13;;;;;;;23.89;74.84;94534.38;5073230;28;20260;-60
2022/07/30 05:50:55;;;;;;;10.75;4.35;;;;;;;23.94;79.49;94456.59;5072512;28;20239;-63
2022/07/30 05:53:21;;;;;;;5.85;4.97;;;;;;;24.05;74.68;94525.25;5054600;28;20184;-63
2022/07/30 05:55:46;;;;;;;7.00;4.25;;;;;;;24.12;77.56;94474.81;5072614;28;20299;-62
2022/07/30 05:58:12;;;;;;;6.07;4.78;;;;;;;24.13;77.33;94488.59;5072512;28;20204;-63
2022/07/30 06:00:37;;;;;;;5.63;4.38;;;;;;;24.26;74.65;94526.63;5071569;28;20221;-63
2022/07/30 06:03:03;;;;;;;5.75;4.40;;;;;;;24.28;74.14;94538.38;5072938;28;20650;-63
2022/07/30 06:05:29;;;;;;;9.30;4.63;;;;;;;24.35;75.71;94499.34;5054412;28;20216;-60
2022/07/30 06:07:55;;;;;;;6.05;5.18;;;;;;;24.50;72.50;94568.16;5072461;28;20172;-60
2022/07/30 06:10:20;;;;;;;5.05;4.38;;;;;;;24.63;73.52;94539.38;5072194;28;20274;-61
2022/07/30 06:12:45;;;;;;;6.97;4.28;;;;;;;24.75;72.61;94558.47;5072275;28;20191;-63
2022/07/30 06:15:11;;;;;;;10.98;4.95;;;;;;;24.93;72.18;94571.44;5054094;28;20189;-63
2022/07/30 06:17:41;;;;;;;6.43;4.50;;;;;;;25.01;71.19;94587.78;5054178;28;20181;-64
2022/07/30 06:20:07;;;;;;;5.40;4.50;;;;;;;24.99;69.50;94619.22;5072101;28;20210;-63
2022/07/30 06:22:33;;;;;;;6.90;5.25;;;;;;;25.02;68.82;94620.59;5072232;28;20677;-64
2022/07/30 06:24:58;;;;;;;7.50;4.68;;;;;;;25.05;68.65;94614.97;5072201;28;20181;-65
2022/07/30 06:27:26;;;;;;;16.88;6.15;;;;;;;25.13;75.61;94495.72;5072406;28;20211;-63
2022/07/30 06:29:51;;;;;;;9.32;7.85;;;;;;;25.31;72.28;94570.38;5071879;28;20227;-63
2022/07/30 06:32:18;;;;;;;8.90;5.50;;;;;;;25.38;72.46;94539.81;5071689;28;20221;-65
2022/07/30 06:34:44;;;;;;;7.57;5.40;;;;;;;25.47;69.33;94620.00;5071880;28;20267;-61
2022/07/30 06:37:09;;;;;;;11.80;6.78;;;;;;;25.64;66.08;94674.84;5071996;28;20354;-59
2022/07/30 06:39:35;;;;;;;8.57;6.53;;;;;;;25.64;67.00;94654.03;5071826;28;20215;-58
2022/07/30 06:42:00;;;;;;;9.05;5.95;;;;;;;25.60;67.41;94619.81;5071747;28;20220;-59
2022/07/30 06:44:25;;;;;;;8.48;6.30;;;;;;;25.58;64.73;94678.34;5071628;28;20192;-61
2022/07/30 06:46:51;;;;;;;7.88;6.70;;;;;;;25.45;65.84;94642.84;5071626;28;20257;-61
2022/07/30 06:49:16;;;;;;;8.05;6.13;;;;;;;25.53;65.88;94636.56;5071664;28;20272;-61
2022/07/30 06:51:42;;;;;;;6.85;5.88;;;;;;;25.53;66.83;94619.09;5071956;28;20242;-61
2022/07/30 06:54:07;;;;;;;9.27;5.30;;;;;;;25.61;64.85;94664.91;5053692;28;20258;-60
2022/07/30 06:56:33;;;;;;;16.85;5.80;;;;;;;25.50;65.87;94629.97;5071794;28;20692;-62
2022/07/30 06:58:58;;;;;;;6.65;5.38;;;;;;;25.41;65.23;94641.72;5071629;28;20177;-61
2022/07/30 07:01:23;;;;;;;9.68;5.57;;;;;;;25.23;66.05;94617.53;5071698;28;20221;-61
2022/07/30 07:03:49;;;;;;;6.30;5.70;;;;;;;25.37;66.22;94618.94;5071498;28;20668;-60
2022/07/30 07:06:15;;;;;;;8.20;5.20;;;;;;;25.60;65.69;94624.22;5071352;28;20216;-60
2022/07/30 07:08:40;;;;;;;8.35;5.60;;;;;;;25.72;64.69;94632.88;5071572;28;20260;-61
2022/07/30 07:11:06;;;;;;;6.65;4.50;;;;;;;25.82;63.08;94664.38;5071243;28;20713;-60
2022/07/30 07:13:31;;;;;;;6.40;5.22;;;;;;;25.82;61.18;94702.69;5071411;28;20223;-61
2022/07/30 07:15:57;;;;;;;8.50;4.72;;;;;;;25.80;63.28;94653.38;5071464;28;20215;-64
2022/07/30 07:18:22;;;;;;;11.43;7.18;;;;;;;25.96;62.53;94650.13;5071263;28;20674;-63
2022/07/30 07:20:48;;;;;;;5.80;4.32;;;;;;;25.96;63.00;94644.91;5071167;28;20220;-63
2022/07/30 07:23:13;;;;;;;5.53;4.80;;;;;;;26.00;63.10;94635.63;5071263;28;20213;-63
2022/07/30 07:25:40;;;;;;;6.20;4.40;;;;;;;26.23;62.05;94645.31;5071095;28;20213;-62
2022/07/30 07:28:06;;;;;;;5.85;4.75;;;;;;;26.31;62.09;94653.63;5071092;28;20234;-63
2022/07/30 07:30:32;;;;;;;8.80;4.85;;;;;;;26.40;61.90;94657.44;5071385;28;20259;-60
2022/07/30 07:32:58;;;;;;;5.28;4.45;;;;;;;26.51;58.32;94744.56;5071178;28;20224;-63
2022/07/30 07:35:23;;;;;;;5.95;4.10;;;;;;;26.44;58.46;94723.00;5071058;28;20302;-66
2022/07/30 07:37:49;;;;;;;7.90;4.35;;;;;;;26.54;59.77;94681.50;5071038;28;20715;-64
2022/07/30 07:40:14;;;;;;;6.05;3.97;;;;;;;26.62;60.68;94661.06;5070935;28;20302;-64
2022/07/30 07:42:40;;;;;;;6.72;4.45;;;;;;;26.93;58.72;94696.47;5071209;28;20569;-64
2022/07/30 07:45:06;;;;;;;5.60;4.10;;;;;;;26.96;58.83;94696.03;5070842;28;20177;-63
2022/07/30 07:47:45;;;;;;;5.22;4.15;;;;;;;27.11;58.02;94703.41;5071091;28;20684;-64
2022/07/30 07:50:10;;;;;;;5.32;4.00;;;;;;;27.30;56.28;94746.59;5070812;28;20191;-62
2022/07/30 07:52:36;;;;;;;5.53;3.92;;;;;;;27.22;55.02;94724.25;5070994;28;20184;-60
2022/07/30 07:55:01;;;;;;;4.68;4.13;;;;;;;27.27;55.87;94705.28;5070639;28;20295;-63
2022/07/30 07:57:27;;;;;;;4.60;4.00;;;;;;;27.45;55.51;94718.22;5069611;28;20557;-64
2022/07/30 07:59:54;;;;;;;5.22;3.88;;;;;;;27.46;56.11;94683.22;5070919;28;20282;-64
2022/07/30 08:02:19;;;;;;;6.75;4.05;;;;;;;27.76;55.34;94696.84;5070426;28;20309;-65
2022/07/30 08:04:45;;;;;;;6.50;3.95;;;;;;;27.91;54.92;94699.72;5070601;28;20241;-64
2022/07/30 08:07:11;;;;;;;4.22;3.80;;;;;;;27.89;54.50;94708.81;5070796;28;20201;-64
2022/07/30 08:09:36;;;;;;;5.57;4.38;;;;;;;28.12;53.87;94714.75;5070673;28;20538;-64
2022/07/30 08:12:02;;;;;;;4.85;4.10;;;;;;;28.13;54.22;94695.44;5052669;28;20234;-63
2022/07/30 08:14:28;;;;;;;7.00;4.20;;;;;;;28.22;53.41;94717.53;5070569;28;20267;-65
2022/07/30 08:16:54;;;;;;;6.07;4.97;;;;;;;28.38;52.05;94734.28;5070531;28;20306;-63
2022/07/30 08:19:19;;;;;;;7.93;4.72;;;;;;;28.54;51.38;94732.69;5052409;28;20192;-64
2022/07/30 08:21:44;;;;;;;7.00;4.90;;;;;;;28.70;51.17;94735.34;5070807;28;20671;-62
2022/07/30 08:24:10;;;;;;;5.30;4.70;;;;;;;28.57;51.88;94711.28;5072241;28;20669;-62
2022/07/30 08:26:35;;;;;;;7.05;4.80;;;;;;;28.84;53.11;94688.66;5056033;28;20240;-64
2022/07/30 08:29:01;;;;;;;4.75;4.28;;;;;;;28.84;51.48;94720.88;5073923;28;20227;-63
2022/07/30 08:31:26;;;;;;;4.85;4.25;;;;;;;28.69;50.95;94733.75;5074536;28;20243;-61
2022/07/30 08:33:51;;;;;;;4.53;4.13;;;;;;;28.97;50.58;94722.34;5074037;28;20185;-62
2022/07/30 08:36:17;;;;;;;6.03;4.15;;;;;;;29.08;51.25;94712.81;5072677;28;20589;-61
2022/07/30 08:38:42;;;;;;;6.20;4.55;;;;;;;29.08;48.62;94760.75;5073497;28;20195;-64
2022/07/30 08:41:08;;;;;;;4.85;3.95;;;;;;;29.23;48.80;94750.47;5073686;28;20240;-66
2022/07/30 08:43:35;;;;;;;7.20;4.00;;;;;;;29.40;49.20;94732.09;5073838;28;20196;-64
2022/07/30 08:46:02;;;;;;;3.72;3.42;;;;;;;29.22;49.07;94729.78;5073953;28;20231;-64
2022/07/30 08:48:29;;;;;;;4.40;4.00;;;;;;;29.40;49.21;94727.66;5073650;28;20709;-63
2022/07/30 08:50:55;;;;;;;6.68;4.32;;;;;;;29.47;45.77;94788.53;5055774;28;20221;-63
2022/07/30 08:53:21;;;;;;;6.25;4.32;;;;;;;28.97;46.61;94757.19;5073700;28;20297;-63
2022/07/30 08:55:47;;;;;;;5.07;4.43;;;;;;;29.00;47.10;94740.19;5073830;28;20211;-65
2022/07/30 08:58:37;;;;;;;5.55;4.60;;;;;;;29.31;49.16;94700.28;5072073;28;20666;-62
2022/07/30 09:01:05;;;;;;;5.60;4.47;;;;;;;29.18;47.91;94718.19;5055476;28;20273;-65
2022/07/30 09:03:31;;;;;;;5.97;4.20;;;;;;;29.41;47.86;94713.50;5055476;28;20701;-64
2022/07/30 09:05:57;;;;;;;4.93;4.13;;;;;;;29.67;47.37;94732.94;5073554;28;20240;-63
2022/07/30 09:08:23;;;;;;;7.38;4.72;;;;;;;29.74;46.77;94713.41;5073481;28;20187;-65
2022/07/30 09:10:48;;;;;;;4.22;3.83;;;;;;;29.75;45.66;94735.97;5073494;28;20305;-62
2022/07/30 09:13:36;;;;;;;6.30;3.97;;;;;;;29.75;45.22;94749.06;5072148;28;20276;-62
2022/07/30 09:16:03;;;;;;;4.32;3.88;;;;;;;29.74;45.73;94723.09;5073336;28;20225;-65
2022/07/30 09:18:36;;;;;;;6.90;4.03;;;;;;;30.09;46.87;94699.84;5073109;28;20181;-64
2022/07/30 09:23:38;;;;;;;5.28;4.53;;;;;;;30.63;46.34;94692.66;5080333;22;20236;-64
2022/07/30 09:26:03;;;;;;;15.38;6.00;;;;;;;30.92;46.36;94704.44;5055070;28;20633;-65
2022/07/30 09:28:31;;;;;;;6.40;4.38;;;;;;;31.00;44.72;94727.59;5073131;28;20182;-61
2022/07/30 09:30:57;;;;;;;4.97;4.00;;;;;;;31.22;44.69;94730.88;5073182;28;20218;-64
2022/07/30 09:33:40;;;;;;;5.38;4.10;;;;;;;30.73;43.03;94747.88;5073287;28;20279;-63
2022/07/30 09:36:38;;;;;;;5.72;3.95;;;;;;;31.19;43.58;94735.88;5137462;27;21008;-65
2022/07/30 09:39:03;;;;;;;4.40;4.00;;;;;;;31.61;43.99;94727.91;5128834;28;20217;-64
2022/07/30 09:41:37;;;;;;;6.68;4.03;;;;;;;31.83;43.85;94731.13;5128610;27;20754;-64
2022/07/30 09:44:05;;;;;;;5.50;4.30;;;;;;;32.04;43.54;94727.50;5111035;28;20182;-64
2022/07/30 09:46:46;;;;;;;7.22;4.05;;;;;;;32.10;44.59;94684.38;5128627;27;20203;-64
2022/07/30 09:49:19;;;;;;;7.82;3.45;;;;;;;32.09;40.01;94806.47;5128673;28;20174;-65
2022/07/30 09:51:45;;;;;;;4.22;3.67;;;;;;;31.88;40.93;94760.06;5128427;27;20207;-64
2022/07/30 09:54:11;;;;;;;5.05;4.55;;;;;;;31.98;39.49;94783.81;5128334;28;20179;-65
2022/07/30 09:56:36;;;;;;;4.80;4.40;;;;;;;32.05;38.76;94800.16;5109920;28;20215;-64
2022/07/30 09:59:02;;;;;;;5.10;3.65;;;;;;;32.24;40.08;94744.13;5109750;28;20194;-63
2022/07/30 10:01:27;;;;;;;5.00;4.47;;;;;;;32.50;41.00;94721.28;5128339;27;20195;-65
2022/07/30 10:03:53;;;;;;;6.35;4.38;;;;;;;32.69;40.55;94745.22;5128397;28;20189;-63
2022/07/30 10:06:31;;;;;;;4.40;4.00;;;;;;;33.04;41.53;94690.66;5128411;27;20292;-63
2022/07/30 10:08:57;;;;;;;4.50;4.10;;;;;;;33.23;39.56;94734.91;5128208;28;20214;-65
2022/07/30 10:11:25;;;;;;;8.27;4.22;;;;;;;33.41;38.90;94750.13;5127865;27;20211;-64
2022/07/30 10:13:54;;;;;;;5.28;4.78;;;;;;;33.36;39.96;94707.94;5128235;28;20259;-65
2022/07/30 10:16:19;;;;;;;5.35;4.85;;;;;;;33.60;37.61;94754.56;5127971;27;20260;-64
2022/07/30 10:18:45;;;;;;;5.82;4.68;;;;;;;33.50;38.27;94736.16;5127786;28;20171;-65
2022/07/30 10:21:11;;;;;;;4.90;4.20;;;;;;;33.65;38.50;94707.06;5127616;27;20234;-63
2022/07/30 10:23:37;;;;;;;5.38;4.13;;;;;;;34.01;39.40;94694.47;5127878;28;20202;-63
2022/07/30 10:26:03;;;;;;;4.53;4.13;;;;;;;34.06;37.61;94739.31;5128048;27;20663;-64
2022/07/30 10:28:30;;;;;;;4.53;4.13;;;;;;;34.45;36.47;94761.25;5128029;28;20191;-63
2022/07/30 10:30:57;;;;;;;5.07;4.53;;;;;;;34.63;35.58;94765.09;5128014;27;20234;-62
2022/07/30 10:33:26;;;;;;;6.07;5.57;;;;;;;34.79;36.47;94734.06;5127927;28;20304;-66
2022/07/30 10:35:51;;;;;;;8.20;5.43;;;;;;;34.85;36.49;94725.00;5127717;27;20202;-66
2022/07/30 10:38:20;;;;;;;7.05;4.82;;;;;;;35.00;36.17;94722.25;5127503;28;20186;-65
2022/07/30 10:40:57;;;;;;;6.72;6.13;;;;;;;35.27;35.85;94720.59;5127604;27;20214;-64
2022/07/30 10:44:01;;;;;;;5.80;5.30;;;;;;;34.62;35.88;94719.38;5126195;28;20183;-62
2022/07/30 10:46:54;;;;;;;5.97;5.45;;;;;;;34.63;35.21;94713.03;5124636;22;20749;-62
2022/07/30 10:49:20;;;;;;;6.28;5.78;;;;;;;34.71;34.25;94716.94;5073187;28;20197;-62
2022/07/30 10:51:48;;;;;;;6.20;5.60;;;;;;;34.93;36.18;94679.47;5073096;28;20205;-61
2022/07/30 10:54:32;;;;;;;6.53;6.00;;;;;;;34.88;35.79;94682.16;5073097;28;20185;-64
2022/07/30 10:57:05;;;;;;;6.60;5.93;;;;;;;35.15;34.40;94706.22;5073135;28;20575;-65
2022/07/30 10:59:57;;;;;;;5.88;5.35;;;;;;;35.34;34.13;94707.84;5055027;28;20192;-65
2022/07/30 11:02:34;;;;;;;6.70;6.10;;;;;;;35.67;35.10;94681.53;5073277;28;20227;-63
2022/07/30 11:05:17;;;;;;;7.05;5.75;;;;;;;35.78;33.50;94720.03;5072960;28;20216;-63
2022/07/30 11:07:44;;;;;;;5.90;5.40;;;;;;;35.52;34.79;94685.16;5073047;28;20192;-64
2022/07/30 11:10:38;;;;;;;7.43;5.78;;;;;;;35.39;33.95;94688.50;5073011;28;20196;-64
2022/07/30 11:13:05;;;;;;;6.78;5.68;;;;;;;35.28;35.29;94656.06;5072922;28;20185;-61
2022/07/30 11:15:53;;;;;;;5.70;5.30;;;;;;;34.91;33.39;94694.81;5054730;28;20216;-59
2022/07/30 11:18:18;;;;;;;5.97;5.45;;;;;;;34.50;34.90;94646.88;5073120;28;20228;-64
2022/07/30 11:21:13;;;;;;;9.30;5.88;;;;;;;34.99;35.60;94612.28;5072815;28;20608;-62
2022/07/30 11:23:39;;;;;;;6.60;5.90;;;;;;;35.41;33.81;94663.31;5072702;28;20199;-63
2022/07/30 11:26:05;;;;;;;6.78;6.10;;;;;;;35.66;34.34;94667.50;5072490;28;20209;-64
2022/07/30 11:28:44;;;;;;;5.95;5.20;;;;;;;35.97;32.73;94681.16;5072569;28;20545;-65
2022/07/30 11:31:27;;;;;;;7.70;6.53;;;;;;;36.33;33.29;94671.56;5072679;28;20288;-64
2022/07/30 11:34:12;;;;;;;6.28;5.53;;;;;;;36.43;32.76;94668.00;5072570;28;20180;-64
2022/07/30 11:37:03;;;;;;;6.28;5.68;;;;;;;36.28;31.66;94694.72;5072305;28;20216;-63
2022/07/30 11:39:54;;;;;;;6.82;5.95;;;;;;;35.91;32.41;94672.47;5072360;28;20268;-62
2022/07/30 11:42:37;;;;;;;8.48;6.15;;;;;;;36.01;32.50;94663.59;5072634;28;20228;-64
2022/07/30 11:45:15;;;;;;;6.28;5.78;;;;;;;35.88;32.09;94672.22;5071958;28;20332;-62
2022/07/30 11:47:42;;;;;;;12.40;5.82;;;;;;;35.58;32.21;94665.50;5072673;28;20262;-64